METAR AND TAF INFORMATION

METAR FOR KCRP
ADDS - METARS form results

(0954 UTC 04 February 2023)
Data provider http://aviationweather.gov/metar/data/
 
METAR text: KCRP 040951Z 01007KT 10SM FEW023 04/04 A3045 RMK AO2 SLP310 T00440039
Conditions at: KCRP (CORPUS CHRISTI , TX, US) observed 0951 UTC 04 February 2023
Temperature: 4.4°C (40°F)
Dewpoint: 3.9°C (39°F) [RH = 97%]
Pressure (altimeter): 30.45 inches Hg (1031.2 mb)
[Sea-level pressure: 1031.0 mb]
Winds: from the N (10 degrees) at 8 MPH (7 knots; 3.6 m/s)
Visibility: 10 or more miles (16+ km)
Ceiling: at least 12,000 feet AGL
Clouds: few clouds at 2300 feet AGL
Weather: no significant weather observed at this time

METAR text: KCRP 040924Z 01005KT 10SM SCT025 05/04 A3046 RMK AO2 T00500044
Conditions at: KCRP (CORPUS CHRISTI , TX, US) observed 0924 UTC 04 February 2023
Temperature: 5.0°C (41°F)
Dewpoint: 4.4°C (40°F) [RH = 96%]
Pressure (altimeter): 30.46 inches Hg (1031.6 mb)
Winds: from the N (10 degrees) at 6 MPH (5 knots; 2.6 m/s)
Visibility: 10 or more miles (16+ km)
Ceiling: at least 12,000 feet AGL
Clouds: scattered clouds at 2500 feet AGL
Weather: no significant weather observed at this time

METAR text: KCRP 040904Z 00000KT 10SM BCFG FEW001 BKN025 04/04 A3046 RMK AO2 BCFG N S NW T00440039
Conditions at: KCRP (CORPUS CHRISTI , TX, US) observed 0904 UTC 04 February 2023
Temperature: 4.4°C (40°F)
Dewpoint: 3.9°C (39°F) [RH = 97%]
Pressure (altimeter): 30.46 inches Hg (1031.6 mb)
Winds: calm
Visibility: 10 or more miles (16+ km)
Ceiling: 2500 feet AGL
Clouds: few clouds at 100 feet AGL
broken clouds at 2500 feet AGL
Weather: BCFG  (patches of fog)

Forecast for: KCRP (CORPUS CHRISTI , TX, US)
Text: KCRP 040838Z 0409/0506 VRB04KT P6SM SCT028
Forecast period: 0900 to 1600 UTC 04 February 2023
Forecast type: FROM: standard forecast or significant change
Winds: variable direction winds at 5 MPH (4 knots; 2.1 m/s)
Visibility: 6 or more miles (10+ km)
Ceiling: at least 12,000 feet AGL
Clouds: scattered clouds at 2800 feet AGL
Weather: no significant weather forecast for this period
Text: TEMPO 0409/0413 5SM BR BKN004 OVC025
Forecast period: 0900 to 1300 UTC 04 February 2023
Forecast type: TEMPORARY: The following changes expected for less than half the time period
Visibility: 5 miles (8 km)
Ceiling: 400 feet AGL
Clouds: broken clouds at 400 feet AGL
overcast cloud deck at 2500 feet AGL
Weather: BR  (mist)
Text: FM041600 13010KT P6SM SCT030
Forecast period: 1600 UTC 04 February 2023 to 0100 UTC 05 February 2023
Forecast type: FROM: standard forecast or significant change
Winds: from the SE (130 degrees) at 12 MPH (10 knots; 5.1 m/s)
Visibility: 6 or more miles (10+ km)
Ceiling: at least 12,000 feet AGL
Clouds: scattered clouds at 3000 feet AGL
Weather: no significant weather forecast for this period
Text: FM050100 13006KT P6SM SCT020
Forecast period: 0100 to 0600 UTC 05 February 2023
Forecast type: FROM: standard forecast or significant change
Winds: from the SE (130 degrees) at 7 MPH (6 knots; 3.1 m/s)
Visibility: 6 or more miles (10+ km)
Ceiling: at least 12,000 feet AGL
Clouds: scattered clouds at 2000 feet AGL
Weather: no significant weather forecast for this period

 

AIRPORT MAP

 

RUNWAY INFORMATION

Runway 13 Runway length 7508 ft Runway width 150 ft
Runway elevation 43 ft Runway displaced threshold 0 ft Runway heading 136
Runway 31 Runway length 7508 ft Runway width 150 ft
Runway elevation 40 ft Runway displaced threshold 0 ft Runway heading 316
Runway 17 Runway length 6080 ft Runway width 150 ft
Runway elevation 40 ft Runway displaced threshold 0 ft Runway heading 179
Runway 35 Runway length 6080 ft Runway width 150 ft
Runway elevation 39 ft Runway displaced threshold 0 ft Runway heading 359

 

AIRPORT FREQUENCIES

Type A/D Name APP/DEP Frequency 120.9 MHZ
Type ATIS Name ATIS Frequency 126.8 MHZ
Type CLD Name CLNC DEL Frequency 118.55 MHZ
Type GND Name GND Frequency 121.9 MHZ
Type RDO Name SAN ANGELO Frequency 122.65 MHZ
Type TWR Name TWR Frequency 119.4 MHZ
Type UNIC Name UNICOM Frequency 122.95 MHZ

 

AIRPORT NEAR NAVIGATION AIDS